createdAt,value
2017-01-04T00:00:23.720Z,604.14
2017-01-04T00:01:23.733Z,606.94
2017-01-04T00:02:23.648Z,606.07
2017-01-04T00:03:23.690Z,604.69
2017-01-04T00:04:23.677Z,603.72
2017-01-04T00:05:23.720Z,606.62
2017-01-04T00:06:23.681Z,606.7
2017-01-04T00:07:23.701Z,605.38
2017-01-04T00:08:23.688Z,603.49
2017-01-04T00:09:23.679Z,604.09
2017-01-04T00:10:23.710Z,603.5
2017-01-04T00:11:23.678Z,603.71
2017-01-04T00:12:23.714Z,602.99
2017-01-04T00:13:23.729Z,603.35
2017-01-04T00:14:23.702Z,601.6
2017-01-04T00:15:23.733Z,602.89
2017-01-04T00:16:23.701Z,603.24
2017-01-04T00:17:23.705Z,603.29
2017-01-04T00:18:23.688Z,603.62
2017-01-04T00:19:23.689Z,603.72
2017-01-04T00:20:23.750Z,602.39
2017-01-04T00:21:23.715Z,603.13
2017-01-04T00:22:23.697Z,602.88
2017-01-04T00:23:23.697Z,603.54
2017-01-04T00:24:23.713Z,604.64
2017-01-04T00:25:23.746Z,604.4
2017-01-04T00:26:23.698Z,604.83
2017-01-04T00:27:23.697Z,603.17
2017-01-04T00:28:23.697Z,602.7
2017-01-04T00:29:23.735Z,602.9
2017-01-04T00:30:23.768Z,602.16
2017-01-04T00:31:23.738Z,602.94
2017-01-04T00:32:23.798Z,604.19
2017-01-04T00:33:23.730Z,603.52
2017-01-04T00:34:23.699Z,604.62
2017-01-04T00:35:23.738Z,602.94
2017-01-04T00:36:23.710Z,603.46
2017-01-04T00:37:23.727Z,604.12
2017-01-04T00:38:23.708Z,605.87
2017-01-04T00:39:23.728Z,603.09
2017-01-04T00:40:23.749Z,602.35
2017-01-04T00:41:23.739Z,603.57
2017-01-04T00:42:23.745Z,601.64
2017-01-04T00:43:23.729Z,601.29
2017-01-04T00:44:23.767Z,602.93
2017-01-04T00:45:23.767Z,601.18
2017-01-04T00:46:23.733Z,600.97
2017-01-04T00:47:23.727Z,600.95
2017-01-04T00:48:23.718Z,601.3
2017-01-04T00:49:23.714Z,601.81
2017-01-04T00:50:23.755Z,600.89
2017-01-04T00:51:23.734Z,601.38
2017-01-04T00:52:23.727Z,601.3
2017-01-04T00:53:23.763Z,601.64
2017-01-04T00:54:23.741Z,602.77
2017-01-04T00:55:23.783Z,602.05
2017-01-04T00:56:23.726Z,600.46
2017-01-04T00:57:23.751Z,602.08
2017-01-04T00:58:23.736Z,600.5
2017-01-04T00:59:23.715Z,601.56
2017-01-04T01:00:23.761Z,599.68
2017-01-04T01:01:23.736Z,602.11
2017-01-04T01:02:23.737Z,600.75
2017-01-04T01:03:23.749Z,599.17
2017-01-04T01:04:33.697Z,601.28
2017-01-04T01:05:23.779Z,601.42
2017-01-04T01:06:23.768Z,600.3
2017-01-04T01:07:23.749Z,599.45
2017-01-04T01:08:23.761Z,599.56
2017-01-04T01:09:23.728Z,598.35
2017-01-04T01:10:23.774Z,599.35
2017-01-04T01:11:23.819Z,600.65
2017-01-04T01:12:23.757Z,601.32
2017-01-04T01:13:23.756Z,600.59
2017-01-04T01:14:23.791Z,601.31
2017-01-04T01:15:23.786Z,600.26
2017-01-04T01:16:23.773Z,600.95
2017-01-04T01:17:23.828Z,603.54
2017-01-04T01:18:24.311Z,603.44
2017-01-04T01:19:23.767Z,602.07
2017-01-04T01:20:23.816Z,603.41
2017-01-04T01:21:23.760Z,601.56
2017-01-04T01:22:23.767Z,603.65
2017-01-04T01:23:23.797Z,601.33
2017-01-04T01:24:23.767Z,601.69
2017-01-04T01:25:23.807Z,603.06
2017-01-04T01:26:23.773Z,604.4
2017-01-04T01:27:23.774Z,606.4
2017-01-04T01:28:23.797Z,606.86
2017-01-04T01:29:23.765Z,605.34
2017-01-04T01:30:23.795Z,606.14
2017-01-04T01:31:23.839Z,605.87
2017-01-04T01:32:23.775Z,605.08
2017-01-04T01:33:23.816Z,605.04
2017-01-04T01:34:23.785Z,604.46
2017-01-04T01:35:23.818Z,605.79
2017-01-04T01:36:23.775Z,605.01
2017-01-04T01:37:23.785Z,606.95
2017-01-04T01:38:23.804Z,607.64
2017-01-04T01:39:23.795Z,608.41
2017-01-04T01:40:23.817Z,609.59
2017-01-04T01:41:23.764Z,607.5
2017-01-04T01:42:23.799Z,608.51
2017-01-04T01:43:23.776Z,610.7
2017-01-04T01:44:23.815Z,609.64
2017-01-04T01:45:23.810Z,608.82
2017-01-04T01:46:23.810Z,608.86
2017-01-04T01:47:23.798Z,610.21
2017-01-04T01:48:23.784Z,610.31
2017-01-04T01:49:23.809Z,610.06
2017-01-04T01:50:23.835Z,608.74
2017-01-04T01:51:23.794Z,610.38
2017-01-04T01:52:23.845Z,611.18
2017-01-04T01:53:23.812Z,611.14
2017-01-04T01:54:23.795Z,610.85
2017-01-04T01:55:23.843Z,612.59
2017-01-04T01:56:23.804Z,611.46
2017-01-04T01:57:23.807Z,612.91
2017-01-04T01:58:23.824Z,612.29
2017-01-04T01:59:23.854Z,613.24
2017-01-04T02:00:23.835Z,614.81
2017-01-04T02:01:23.812Z,614.75
2017-01-04T02:02:23.835Z,613.65
2017-01-04T02:03:23.854Z,613.64
2017-01-04T02:04:23.812Z,614.45
2017-01-04T02:05:23.864Z,615.78
2017-01-04T02:06:23.864Z,616.74
2017-01-04T02:10:52.913Z,620.41
2017-01-04T02:11:55.335Z,619.3
2017-01-04T02:12:52.884Z,620.45
2017-01-04T02:13:52.894Z,621.24
2017-01-04T02:14:55.225Z,622.02
2017-01-04T02:15:52.913Z,624.02
2017-01-04T02:16:52.873Z,623.47
2017-01-04T02:17:54.279Z,623.18
2017-01-04T02:18:52.876Z,624.17
2017-01-04T02:19:52.872Z,625.3
2017-01-04T02:20:52.895Z,624.37
2017-01-04T02:21:52.898Z,625.65
2017-01-04T02:22:52.875Z,626.44
2017-01-04T02:23:52.892Z,628.57
2017-01-04T02:24:52.882Z,628.83
2017-01-04T02:25:52.921Z,629.41
2017-01-04T02:26:52.890Z,627.58
2017-01-04T02:27:52.901Z,629.43
2017-01-04T02:28:52.893Z,629.33
2017-01-04T02:29:52.890Z,629.58
2017-01-04T02:30:52.921Z,631.18
2017-01-04T02:31:52.876Z,630.13
2017-01-04T02:32:52.893Z,631.95
2017-01-04T02:33:52.901Z,630.22
2017-01-04T02:34:52.880Z,631.63
2017-01-04T02:35:52.931Z,631.39
2017-01-04T02:36:52.904Z,634.38
2017-01-04T02:37:52.924Z,632.74
2017-01-04T02:38:52.886Z,633.64
2017-01-04T02:39:52.936Z,633.2
2017-01-04T02:40:52.923Z,634.97
2017-01-04T02:41:52.902Z,635.08
2017-01-04T02:42:52.888Z,636.26
2017-01-04T02:43:52.923Z,635
2017-01-04T02:44:52.923Z,635.56
2017-01-04T02:45:52.953Z,635.13
2017-01-04T02:46:52.909Z,636.22
2017-01-04T02:47:52.974Z,635.69
2017-01-04T02:48:52.913Z,636.21
2017-01-04T02:49:52.911Z,637.62
2017-01-04T02:50:52.951Z,638.91
2017-01-04T02:51:52.911Z,638
2017-01-04T02:52:52.914Z,639.42
2017-01-04T02:53:52.921Z,637.77
2017-01-04T02:54:52.926Z,639.44
2017-01-04T02:55:52.941Z,640.12
2017-01-04T02:56:52.981Z,639.66
2017-01-04T02:57:52.926Z,640.6
2017-01-04T02:58:52.941Z,642.78
2017-01-04T02:59:52.917Z,643.13
2017-01-04T03:00:52.958Z,643.5
2017-01-04T03:01:52.941Z,643.88
2017-01-04T03:02:52.928Z,642.8
2017-01-04T03:03:52.938Z,643.7
2017-01-04T03:04:52.940Z,645.02
2017-01-04T03:05:52.968Z,644.15
2017-01-04T03:06:52.931Z,643.86
2017-01-04T03:07:52.930Z,645.05
2017-01-04T03:08:52.925Z,644.05
2017-01-04T03:09:52.951Z,645.72
2017-01-04T03:10:52.980Z,647.57
2017-01-04T03:11:52.961Z,647.75
2017-01-04T03:12:52.932Z,645.66
2017-01-04T03:13:52.920Z,646.21
2017-01-04T03:14:52.947Z,646.1
2017-01-04T03:15:52.950Z,649.39
2017-01-04T03:16:52.973Z,648.35
2017-01-04T03:17:52.940Z,648.27
2017-01-04T03:18:52.939Z,646.84
2017-01-04T03:19:52.940Z,647.65
2017-01-04T03:20:52.974Z,647.51
2017-01-04T03:21:52.979Z,648.4
2017-01-04T03:22:52.958Z,648.29
2017-01-04T03:23:52.958Z,648.33
2017-01-04T03:24:52.967Z,649.2
2017-01-04T03:25:52.967Z,648.74
2017-01-04T03:26:52.953Z,649.31
2017-01-04T03:27:52.940Z,649.28
2017-01-04T03:28:53.019Z,647.87
2017-01-04T03:29:52.987Z,648.75
2017-01-04T03:30:52.981Z,650.2
2017-01-04T03:31:53.031Z,649.86
2017-01-04T03:32:52.968Z,648.95
2017-01-04T03:33:52.967Z,649.54
2017-01-04T03:34:52.979Z,649.52
2017-01-04T03:35:52.998Z,650.48
2017-01-04T03:36:52.992Z,649.16
2017-01-04T03:37:52.978Z,651.52
2017-01-04T03:38:52.964Z,654.42
2017-01-04T03:39:52.963Z,651.95
2017-01-04T03:40:53.006Z,650.9
2017-01-04T03:41:52.969Z,651.64
2017-01-04T03:42:53.014Z,651.89
2017-01-04T03:44:02.928Z,653.04
2017-01-04T03:44:52.971Z,652.31
2017-01-04T03:45:53.000Z,651.93
2017-01-04T03:46:52.999Z,652.73
2017-01-04T03:47:52.988Z,652.41
2017-01-04T03:48:53.012Z,655.05
2017-01-04T03:51:11.974Z,653.36
2017-01-04T03:52:11.933Z,653.78
2017-01-04T03:53:11.968Z,653.97
2017-01-04T03:54:12.003Z,653.71
2017-01-04T03:55:11.968Z,654.81
2017-01-04T03:56:11.966Z,655.08
2017-01-04T03:57:11.947Z,653.35
2017-01-04T03:58:11.948Z,654.12
2017-01-04T03:59:11.959Z,653.22
2017-01-04T04:00:11.947Z,655.29
2017-01-04T04:01:11.978Z,653.58
2017-01-04T04:02:11.957Z,653.89
2017-01-04T04:03:11.962Z,653.34
2017-01-04T04:04:11.975Z,656.12
2017-01-04T04:05:11.958Z,655.87
2017-01-04T04:06:11.966Z,656.32
2017-01-04T04:07:11.977Z,656.48
2017-01-04T04:08:11.992Z,656.5
2017-01-04T04:09:11.968Z,656.77
2017-01-04T04:10:11.975Z,656.91
2017-01-04T04:11:12.014Z,656.3
2017-01-04T04:12:11.977Z,657.34
2017-01-04T04:13:11.980Z,657.28
2017-01-04T04:14:11.987Z,657.14
2017-01-04T04:15:11.979Z,659.37
2017-01-04T04:16:12.136Z,658.51
2017-01-04T04:17:11.987Z,660.44
2017-01-04T04:18:11.986Z,659.86
2017-01-04T04:19:11.982Z,660.73
2017-01-04T04:20:12.005Z,662.38
2017-01-04T04:21:12.026Z,662.37
2017-01-04T04:22:11.985Z,662.27
2017-01-04T04:23:11.984Z,660.55
2017-01-04T04:24:11.985Z,662.62
2017-01-04T04:25:11.975Z,663.22
2017-01-04T04:26:12.120Z,662.4
2017-01-04T04:27:11.993Z,662.4
2017-01-04T04:28:11.997Z,661.41
2017-01-04T04:29:11.982Z,663.35
2017-01-04T04:30:12.088Z,662.89
2017-01-04T04:31:12.052Z,663.15
2017-01-04T04:32:11.986Z,663.55
2017-01-04T04:33:11.986Z,662.92
2017-01-04T04:34:12.122Z,662.81
2017-01-04T04:35:12.005Z,664.13
2017-01-04T04:36:12.040Z,664.35
2017-01-04T04:37:12.005Z,664.27
2017-01-04T04:38:11.997Z,662.99
2017-01-04T04:39:12.018Z,663.77
2017-01-04T04:40:12.033Z,662.85
2017-01-04T04:41:12.265Z,661.34
2017-01-04T04:42:12.132Z,662.19
2017-01-04T04:43:12.019Z,661.84
2017-01-04T04:44:12.006Z,663.45
2017-01-04T04:45:12.006Z,662.75
2017-01-04T04:46:12.064Z,663.57
2017-01-04T04:47:12.004Z,662.31
2017-01-04T04:48:12.043Z,661.83
2017-01-04T04:49:12.017Z,663.51
2017-01-04T04:50:12.191Z,662.1
2017-01-04T04:51:12.063Z,661.33
2017-01-04T04:52:12.048Z,662.13
2017-01-04T04:53:12.575Z,661.56
2017-01-04T04:54:12.024Z,661.44
2017-01-04T04:55:12.013Z,660.44
2017-01-04T04:56:12.103Z,660.9
2017-01-04T04:57:12.022Z,658.32
2017-01-04T04:58:12.173Z,659.63
2017-01-04T04:59:12.036Z,660.6
2017-01-04T05:00:12.170Z,662.38
2017-01-04T05:01:12.061Z,661.73
2017-01-04T05:02:12.054Z,662.3
2017-01-04T05:03:12.054Z,661.27
2017-01-04T05:04:12.069Z,661.08
2017-01-04T05:05:12.038Z,661.33
2017-01-04T05:06:12.063Z,662.9
2017-01-04T05:07:12.066Z,663.55
2017-01-04T05:08:12.036Z,661.66
2017-01-04T05:09:12.033Z,661.29
2017-01-04T05:10:12.036Z,661.48
2017-01-04T05:11:12.075Z,660.78
2017-01-04T05:12:12.030Z,659
2017-01-04T05:13:12.040Z,660.67
2017-01-04T05:17:41.822Z,664.24
2017-01-04T05:18:41.809Z,664.45
2017-01-04T05:19:41.855Z,664.59
2017-01-04T05:20:41.790Z,665.97
2017-01-04T05:21:41.803Z,666.3
2017-01-04T05:22:41.842Z,667.77
2017-01-04T05:23:41.780Z,667.98
2017-01-04T05:24:41.846Z,669.42
2017-01-04T05:25:41.885Z,669.81
2017-01-04T05:26:41.797Z,670.63
2017-01-04T05:27:41.836Z,670.76
2017-01-04T05:28:41.801Z,670.04
2017-01-04T05:33:11.773Z,672.42
2017-01-04T05:34:11.716Z,672.2
2017-01-04T05:35:11.771Z,673.44
2017-01-04T05:36:11.728Z,672.42
2017-01-04T05:37:11.732Z,672.66
2017-01-04T05:38:11.762Z,673.96
2017-01-04T05:39:11.740Z,673.82
2017-01-04T05:40:11.730Z,675.83
2017-01-04T05:41:11.791Z,676.21
2017-01-04T05:42:11.750Z,678.03
2017-01-04T05:43:11.794Z,678.33
2017-01-04T05:44:11.816Z,677.58
2017-01-04T05:45:11.749Z,678.02
2017-01-04T05:46:11.784Z,677.53
2017-01-04T05:47:11.749Z,678.22
2017-01-04T05:48:11.769Z,678.19
2017-01-04T05:49:11.766Z,678.84
2017-01-04T05:50:11.903Z,680.4
2017-01-04T05:51:11.756Z,681.64
2017-01-04T05:52:11.768Z,679.95
2017-01-04T05:53:11.775Z,679.58
2017-01-04T05:54:11.751Z,682.55
2017-01-04T05:55:11.740Z,682.97
2017-01-04T05:56:11.771Z,682.66
2017-01-04T05:57:11.761Z,680.87
2017-01-04T05:58:11.796Z,681.98
2017-01-04T05:59:11.788Z,680.91
2017-01-04T06:00:11.778Z,681.57
2017-01-04T06:01:11.754Z,681.89
2017-01-04T06:02:11.824Z,683.86
2017-01-04T06:03:11.813Z,682.49
2017-01-04T06:04:11.776Z,682.46
2017-01-04T06:05:11.799Z,683.99
2017-01-04T06:06:11.786Z,683.02
2017-01-04T06:07:11.800Z,685.36
2017-01-04T06:08:11.783Z,685.27
2017-01-04T06:09:11.763Z,687.53
2017-01-04T06:10:11.769Z,688.7
2017-01-04T06:11:11.792Z,690.89
2017-01-04T06:12:11.773Z,690.14
2017-01-04T06:13:11.814Z,691.84
2017-01-04T06:14:11.772Z,692.04
2017-01-04T06:15:11.789Z,691.84
2017-01-04T06:16:11.789Z,691.82
2017-01-04T06:17:11.772Z,692.75
2017-01-04T06:18:11.829Z,694.16
2017-01-04T06:19:11.769Z,694.66
2017-01-04T06:20:11.805Z,695.3
2017-01-04T06:21:21.744Z,695.17
2017-01-04T06:22:13.492Z,697.03
2017-01-04T06:23:11.840Z,696.02
2017-01-04T06:24:11.861Z,698.79
2017-01-04T06:25:11.800Z,699.62
2017-01-04T06:26:11.847Z,700.65
2017-01-04T06:27:11.800Z,700.33
2017-01-04T06:28:11.829Z,702.61
2017-01-04T06:29:11.809Z,701.77
2017-01-04T06:30:11.827Z,703.37
2017-01-04T06:31:11.920Z,704.94
2017-01-04T06:32:11.790Z,705.9
2017-01-04T06:33:11.839Z,706.65
2017-01-04T06:34:11.805Z,707.88
2017-01-04T06:35:11.808Z,709.24
2017-01-04T06:36:11.799Z,710.22
2017-01-04T06:37:11.820Z,709.45
2017-01-04T06:38:11.809Z,710.67
2017-01-04T06:39:11.809Z,711.74
2017-01-04T06:40:11.848Z,713.28
2017-01-04T06:41:11.807Z,715.55
2017-01-04T06:42:11.839Z,716.48
2017-01-04T06:43:11.868Z,716.38
2017-01-04T06:44:11.809Z,717.02
2017-01-04T06:45:11.823Z,717.36
2017-01-04T06:46:11.829Z,717.94
2017-01-04T06:47:11.826Z,719.45
2017-01-04T06:48:11.867Z,720.62
2017-01-04T06:49:11.815Z,719.91
2017-01-04T06:50:11.824Z,719.99
2017-01-04T06:51:11.828Z,719.44
2017-01-04T06:52:11.826Z,720.93
2017-01-04T06:53:11.856Z,721.58
2017-01-04T06:54:11.824Z,721.78
2017-01-04T06:55:11.815Z,721.26
2017-01-04T06:56:11.817Z,721.93
2017-01-04T06:57:11.815Z,720.54
2017-01-04T06:58:12.436Z,722.74
2017-01-04T06:59:11.807Z,722.04
2017-01-04T07:00:11.876Z,722.92
2017-01-04T07:01:11.837Z,723.3
2017-01-04T07:02:11.945Z,725.54
2017-01-04T07:03:11.843Z,724.85
2017-01-04T07:04:11.834Z,727.02
2017-01-04T07:05:11.824Z,725.7
2017-01-04T07:06:11.843Z,727.38
2017-01-04T07:07:11.873Z,727.68
2017-01-04T07:08:11.868Z,728.55
2017-01-04T07:09:11.824Z,727.31
2017-01-04T07:10:11.858Z,728.15
2017-01-04T07:11:11.832Z,728.74
2017-01-04T07:12:11.844Z,726.79
2017-01-04T07:13:11.891Z,726.6
2017-01-04T07:14:11.883Z,727.66
2017-01-04T07:15:11.851Z,730.83
2017-01-04T07:16:11.860Z,731.82
2017-01-04T07:17:11.865Z,730.1
2017-01-04T07:18:11.869Z,731.47
2017-01-04T07:19:11.838Z,732.84
2017-01-04T07:20:11.893Z,733.44
2017-01-04T07:21:11.849Z,735.12
2017-01-04T07:22:11.840Z,735.08
2017-01-04T07:23:11.946Z,734.98
2017-01-04T07:24:11.859Z,734.7
2017-01-04T07:25:11.840Z,734.07
2017-01-04T07:26:11.868Z,734.39
2017-01-04T07:27:11.844Z,734.31
2017-01-04T07:28:11.969Z,734.54
2017-01-04T07:29:11.847Z,735.41
2017-01-04T07:30:11.842Z,734.89
2017-01-04T07:31:11.875Z,734.76
2017-01-04T07:32:11.867Z,734.75
2017-01-04T07:33:11.896Z,733.38
2017-01-04T07:34:11.857Z,734.68
2017-01-04T07:35:11.906Z,734.84
2017-01-04T07:36:11.991Z,736.03
2017-01-04T07:37:11.866Z,736.7
2017-01-04T07:38:11.884Z,735.89
2017-01-04T07:39:11.865Z,737.4
2017-01-04T07:40:11.896Z,738.57
2017-01-04T07:41:11.880Z,739.89
2017-01-04T07:42:11.879Z,740.84
2017-01-04T07:43:11.903Z,742.5
2017-01-04T07:44:11.871Z,743.37
2017-01-04T07:45:11.865Z,741.62
2017-01-04T07:46:11.913Z,742.88
2017-01-04T07:47:11.879Z,743.75
2017-01-04T07:48:11.898Z,743.91
2017-01-04T07:49:11.870Z,743.7
2017-01-04T07:50:11.881Z,743.91
2017-01-04T07:51:11.927Z,745.98
2017-01-04T07:52:11.884Z,745.37
2017-01-04T07:53:11.911Z,746.63
2017-01-04T07:54:12.000Z,746.96
2017-01-04T07:55:11.899Z,747.33
2017-01-04T07:56:11.888Z,747.55
2017-01-04T07:57:11.888Z,748.06
2017-01-04T07:58:11.897Z,749.34
2017-01-04T07:59:11.899Z,750.47
2017-01-04T08:00:11.877Z,749.67
2017-01-04T08:01:11.904Z,748.18
2017-01-04T08:02:11.906Z,750.17
2017-01-04T08:03:11.899Z,751.36
2017-01-04T08:04:11.979Z,751.05
2017-01-04T08:05:11.915Z,751.44
2017-01-04T08:06:11.907Z,753.24
2017-01-04T08:07:11.940Z,754.57
2017-01-04T08:08:11.926Z,754.13
2017-01-04T08:09:11.975Z,753.48
2017-01-04T08:10:11.884Z,753.18
2017-01-04T08:11:11.946Z,755.44
2017-01-04T08:12:11.952Z,754.67
2017-01-04T08:13:11.942Z,753.83
2017-01-04T08:14:11.904Z,754.46
2017-01-04T08:15:11.904Z,755.32
2017-01-04T08:16:11.915Z,754.51
2017-01-04T08:17:11.896Z,753.64
2017-01-04T08:18:12.041Z,755.95
2017-01-04T08:19:11.927Z,758.35
2017-01-04T08:20:11.907Z,755.45
2017-01-04T08:21:11.990Z,753.7
2017-01-04T08:22:11.919Z,757.74
2017-01-04T08:23:11.923Z,757.42
2017-01-04T08:24:11.919Z,759.01
2017-01-04T08:25:11.921Z,759.31
2017-01-04T08:26:11.952Z,758.82
2017-01-04T08:27:11.928Z,759.27
2017-01-04T08:28:11.981Z,760.24
2017-01-04T08:29:11.910Z,761.87
2017-01-04T08:30:11.971Z,761.59
2017-01-04T08:31:11.929Z,760.98
2017-01-04T08:32:11.933Z,764.58
2017-01-04T08:33:11.959Z,764.08
2017-01-04T08:34:11.922Z,763.47
2017-01-04T08:35:11.931Z,763.5
2017-01-04T08:36:11.920Z,769.83
2017-01-04T08:37:11.951Z,767.88
2017-01-04T08:38:12.013Z,770.42
2017-01-04T08:39:11.935Z,773.35
2017-01-04T08:40:11.962Z,772.41
2017-01-04T08:41:11.970Z,769.44
2017-01-04T08:42:11.955Z,773.21
2017-01-04T08:43:11.975Z,773.69
2017-01-04T08:44:11.955Z,777
2017-01-04T08:45:12.018Z,777.49
2017-01-04T08:46:11.972Z,778.85
2017-01-04T08:47:11.953Z,779.79
2017-01-04T08:48:12.029Z,778.94
2017-01-04T08:49:11.944Z,779.5
2017-01-04T08:50:11.980Z,780.41
2017-01-04T08:51:11.967Z,780.59
2017-01-04T08:52:12.026Z,778.06
2017-01-04T08:53:12.018Z,781.09
2017-01-04T08:54:11.965Z,783.43
2017-01-04T08:55:12.072Z,785.1
2017-01-04T08:56:11.971Z,784.8
2017-01-04T08:57:11.953Z,782.95
2017-01-04T08:58:12.007Z,783.72
2017-01-04T08:59:11.998Z,783.78
2017-01-04T09:00:11.971Z,786.97
2017-01-04T09:01:11.950Z,781.6
2017-01-04T09:02:11.956Z,785.24
2017-01-04T09:03:11.971Z,784.28
2017-01-04T09:04:11.995Z,783.61
2017-01-04T09:05:11.974Z,781.76
2017-01-04T09:06:12.001Z,783.76
2017-01-04T09:07:11.985Z,786.53
2017-01-04T09:08:12.664Z,783.14
2017-01-04T09:09:11.993Z,787.31
2017-01-04T09:10:12.049Z,788.7
2017-01-04T09:11:12.004Z,789.36
2017-01-04T09:12:11.971Z,793.48
2017-01-04T09:13:12.002Z,795.78
2017-01-04T09:14:12.013Z,796.12
2017-01-04T09:15:11.982Z,797.85
2017-01-04T09:16:11.983Z,799.69
2017-01-04T09:17:11.991Z,799.3
2017-01-04T09:18:12.024Z,804.5
2017-01-04T09:19:11.991Z,801.33
2017-01-04T09:20:12.022Z,801
2017-01-04T09:21:11.984Z,807.97
2017-01-04T09:22:11.985Z,809.65
2017-01-04T09:23:12.013Z,824.48
2017-01-04T09:24:11.991Z,832.14
2017-01-04T09:25:12.074Z,839.05
2017-01-04T09:26:11.977Z,831.75
2017-01-04T09:27:12.008Z,826.87
2017-01-04T09:28:12.021Z,820.67
2017-01-04T09:29:12.008Z,814.57
2017-01-04T09:30:12.033Z,815.07
2017-01-04T09:31:12.003Z,815.78
2017-01-04T09:32:12.003Z,816.88
2017-01-04T09:33:12.069Z,824.44
2017-01-04T09:34:12.020Z,823.02
2017-01-04T09:35:12.023Z,825.53
2017-01-04T09:36:11.991Z,833.79
2017-01-04T09:37:12.034Z,835.49
2017-01-04T09:38:12.021Z,835.1
2017-01-04T09:39:12.008Z,826.45
2017-01-04T09:40:12.033Z,829.57
2017-01-04T09:41:12.012Z,844.41
2017-01-04T09:42:12.011Z,842.74
2017-01-04T09:43:12.101Z,849.15
2017-01-04T09:44:12.032Z,857.6
2017-01-04T09:45:12.057Z,853.75
2017-01-04T09:46:12.019Z,854.24
2017-01-04T09:47:12.041Z,847.44
2017-01-04T09:48:12.070Z,845.53
2017-01-04T09:49:12.063Z,850.1
2017-01-04T09:50:12.050Z,845.85
2017-01-04T09:51:12.055Z,840.52
2017-01-04T09:52:12.030Z,844.28
2017-01-04T09:53:12.881Z,852.66
2017-01-04T09:54:12.080Z,853.13
2017-01-04T09:55:12.104Z,843.24
2017-01-04T09:56:12.168Z,841.84
2017-01-04T09:57:12.120Z,835.35
2017-01-04T09:58:12.170Z,831.1
2017-01-04T09:59:12.179Z,836.41
2017-01-04T10:00:12.152Z,840.43
2017-01-04T10:01:12.115Z,841.26
2017-01-04T10:02:12.182Z,846.28
2017-01-04T10:03:12.047Z,844.1
2017-01-04T10:04:12.079Z,855.28
2017-01-04T10:05:12.050Z,859.86
2017-01-04T10:06:12.082Z,861.05
2017-01-04T10:07:12.079Z,875.34
2017-01-04T10:08:12.096Z,887.18
2017-01-04T10:09:12.067Z,885.34
2017-01-04T10:10:12.078Z,888.28
2017-01-04T10:11:12.068Z,873.46
2017-01-04T10:12:12.107Z,869.68
2017-01-04T10:13:12.072Z,863.85
2017-01-04T10:14:12.066Z,862.74
2017-01-04T10:15:12.093Z,855.79
2017-01-04T10:16:12.080Z,863.85
2017-01-04T10:17:12.069Z,866.29
2017-01-04T10:18:12.097Z,860.83
2017-01-04T10:19:12.061Z,861.29
2017-01-04T10:23:41.668Z,834.7
2017-01-04T10:24:41.701Z,837.74
2017-01-04T10:25:41.668Z,836.67
2017-01-04T10:26:41.661Z,842.92
2017-01-04T10:27:41.678Z,850.24
2017-01-04T10:28:41.736Z,857.05
2017-01-04T10:29:41.715Z,867.58
2017-01-04T10:30:41.685Z,874.84
2017-01-04T10:31:41.719Z,869.08
2017-01-04T10:32:41.691Z,857.58
2017-01-04T10:33:41.710Z,846.22
2017-01-04T10:34:41.692Z,840.73
2017-01-04T10:35:41.709Z,839.86
2017-01-04T10:36:41.671Z,850.11
2017-01-04T10:37:41.706Z,861.52
2017-01-04T10:38:41.731Z,869.36
2017-01-04T10:39:41.676Z,863.16
2017-01-04T10:40:41.677Z,853.34
2017-01-04T10:41:41.698Z,859.31
2017-01-04T10:42:41.675Z,854.82
2017-01-04T10:43:41.717Z,853.72
2017-01-04T10:44:41.707Z,857.2
2017-01-04T10:45:41.687Z,853.04
2017-01-04T10:46:41.707Z,845.27
2017-01-04T10:47:41.685Z,838.76
2017-01-04T10:48:41.733Z,837.14
2017-01-04T10:49:41.736Z,836.32
2017-01-04T10:50:41.722Z,829.27
2017-01-04T10:51:41.724Z,839.7
2017-01-04T10:52:41.732Z,846.62
2017-01-04T10:53:41.715Z,851.6
2017-01-04T10:54:41.687Z,844.1
2017-01-04T10:55:41.763Z,842.7
2017-01-04T10:56:41.785Z,847
2017-01-04T10:57:41.782Z,841.61
2017-01-04T10:58:41.715Z,832.41
2017-01-04T10:59:41.702Z,830.58
2017-01-04T11:00:41.741Z,833.91
2017-01-04T11:01:41.731Z,844.79
2017-01-04T11:02:41.704Z,851.66
2017-01-04T11:03:41.751Z,860.91
2017-01-04T11:04:41.735Z,865.41
2017-01-04T11:05:41.746Z,871.04
2017-01-04T11:06:41.715Z,889.83
2017-01-04T11:07:41.766Z,910.77
2017-01-04T11:08:41.733Z,909.83
2017-01-04T11:09:41.755Z,889.99
2017-01-04T11:10:41.700Z,872.17
2017-01-04T11:11:41.734Z,866.03
2017-01-04T11:12:41.812Z,863.64
2017-01-04T11:13:41.821Z,853.16
2017-01-04T11:14:41.765Z,852.49
2017-01-04T11:15:41.761Z,856.14
2017-01-04T11:16:41.745Z,863.43
2017-01-04T11:17:41.767Z,848.47
2017-01-04T11:18:41.745Z,843.01
2017-01-04T11:19:41.765Z,841.87
2017-01-04T11:20:41.750Z,841.19
2017-01-04T11:21:41.759Z,842.2
2017-01-04T11:22:41.752Z,842.62
2017-01-04T11:23:41.772Z,840
2017-01-04T11:24:41.732Z,840.07
2017-01-04T11:25:41.796Z,845.16
2017-01-04T11:26:41.754Z,833
2017-01-04T11:27:41.769Z,828.54
2017-01-04T11:28:41.797Z,832.9
2017-01-04T11:29:41.743Z,842.55
2017-01-04T11:30:41.883Z,854.35
2017-01-04T11:31:41.785Z,854.81
2017-01-04T11:32:41.793Z,846.5
2017-01-04T11:33:41.783Z,856.4
2017-01-04T11:34:41.766Z,868.11
2017-01-04T11:35:41.763Z,861.89
2017-01-04T11:36:41.791Z,873.91
2017-01-04T11:37:41.780Z,885.91
2017-01-04T11:38:41.849Z,890.3
2017-01-04T11:39:41.800Z,888.67
2017-01-04T11:40:41.774Z,897.45
2017-01-04T11:41:41.764Z,899.09
2017-01-04T11:42:41.778Z,899.68
2017-01-04T11:43:41.781Z,912.98
2017-01-04T11:44:41.808Z,920.85
2017-01-04T11:45:41.750Z,924.99
2017-01-04T11:46:41.811Z,939.8
2017-01-04T11:47:41.782Z,949.1
2017-01-04T11:48:41.842Z,952.26
2017-01-04T11:49:41.838Z,952.63
2017-01-04T11:50:41.814Z,962.53
2017-01-04T11:51:41.850Z,981.51
2017-01-04T11:52:41.773Z,972.09
2017-01-04T11:53:41.802Z,976.3
2017-01-04T11:54:41.773Z,985.59
2017-01-04T11:55:41.796Z,993.09
2017-01-04T11:56:41.799Z,996.78
2017-01-04T11:57:41.780Z,985.61
2017-01-04T11:58:41.832Z,985.17
2017-01-04T11:59:41.782Z,988.3
2017-01-04T12:00:41.775Z,984.65
2017-01-04T12:01:41.779Z,977.72
2017-01-04T12:02:41.792Z,986.85
2017-01-04T12:03:41.840Z,995.23
2017-01-04T12:04:41.870Z,993.57
2017-01-04T12:05:41.803Z,1007.99
2017-01-04T12:06:41.808Z,1028.59
2017-01-04T12:07:41.819Z,1037.64
2017-01-04T12:08:41.806Z,1042.75
2017-01-04T12:09:41.767Z,1017.26
2017-01-04T12:10:41.809Z,1008.46
2017-01-04T12:11:41.953Z,1005.14
2017-01-04T12:12:41.785Z,991.47
2017-01-04T12:13:41.868Z,979.39
2017-01-04T12:14:41.830Z,964.78
2017-01-04T12:15:41.806Z,981.31
2017-01-04T12:16:41.808Z,979.59
2017-01-04T12:17:41.811Z,962.66
2017-01-04T12:18:41.860Z,945.71
2017-01-04T12:19:41.811Z,929.66
2017-01-04T12:20:41.803Z,920.5
2017-01-04T12:21:41.820Z,911.12
2017-01-04T12:22:41.832Z,902.98
2017-01-04T12:23:41.919Z,898.82
2017-01-04T12:24:41.840Z,889.57
2017-01-04T12:25:41.882Z,883.41
2017-01-04T12:26:41.786Z,881.66
2017-01-04T12:27:41.841Z,879.65
2017-01-04T12:28:41.868Z,860.75
2017-01-04T12:29:41.841Z,850.7
2017-01-04T12:30:41.819Z,847.37
2017-01-04T12:31:41.845Z,847.86
2017-01-04T12:32:41.826Z,833.9
2017-01-04T12:33:41.832Z,825.94
2017-01-04T12:34:41.823Z,821.91
2017-01-04T12:35:41.825Z,817.61
2017-01-04T12:36:41.833Z,818.75
2017-01-04T12:37:41.835Z,818.95
2017-01-04T12:38:41.869Z,809.61
2017-01-04T12:39:41.892Z,827.92
2017-01-04T12:40:41.842Z,838.73
2017-01-04T12:41:41.825Z,852.96
2017-01-04T12:42:41.824Z,863.19
2017-01-04T12:43:41.874Z,864.67
2017-01-04T12:44:41.834Z,854.51
2017-01-04T12:45:41.831Z,845.83
2017-01-04T12:46:41.845Z,852.81